sensor_id;sensor_type;location;lat;lon;timestamp;P1;durP1;ratioP1;P2;durP2;ratioP2
55025;SDS011;40925;45.666;18.994;2023-03-16T00:00:51;8.48;;;3.47;;
55025;SDS011;40925;45.666;18.994;2023-03-16T00:03:17;7.55;;;4.00;;
55025;SDS011;40925;45.666;18.994;2023-03-16T00:11:52;10.70;;;4.10;;
55025;SDS011;40925;45.666;18.994;2023-03-16T00:14:19;7.85;;;3.88;;
55025;SDS011;40925;45.666;18.994;2023-03-16T00:16:46;7.50;;;4.05;;
55025;SDS011;40925;45.666;18.994;2023-03-16T00:19:13;8.02;;;4.18;;
55025;SDS011;40925;45.666;18.994;2023-03-16T00:24:26;12.00;;;5.65;;
55025;SDS011;40925;45.666;18.994;2023-03-16T00:26:52;9.55;;;4.47;;
55025;SDS011;40925;45.666;18.994;2023-03-16T00:29:19;12.93;;;5.03;;
55025;SDS011;40925;45.666;18.994;2023-03-16T00:31:49;12.90;;;5.30;;
55025;SDS011;40925;45.666;18.994;2023-03-16T00:34:19;14.18;;;5.90;;
55025;SDS011;40925;45.666;18.994;2023-03-16T00:36:47;12.25;;;5.35;;
55025;SDS011;40925;45.666;18.994;2023-03-16T00:39:13;12.23;;;4.20;;
55025;SDS011;40925;45.666;18.994;2023-03-16T00:41:48;9.10;;;4.40;;
55025;SDS011;40925;45.666;18.994;2023-03-16T00:44:15;11.80;;;4.63;;
55025;SDS011;40925;45.666;18.994;2023-03-16T00:46:42;10.57;;;4.35;;
55025;SDS011;40925;45.666;18.994;2023-03-16T00:49:08;14.18;;;4.82;;
55025;SDS011;40925;45.666;18.994;2023-03-16T00:51:34;18.58;;;5.57;;
55025;SDS011;40925;45.666;18.994;2023-03-16T00:54:00;13.20;;;5.10;;
55025;SDS011;40925;45.666;18.994;2023-03-16T00:56:28;14.63;;;5.50;;
55025;SDS011;40925;45.666;18.994;2023-03-16T00:58:54;12.15;;;5.25;;
55025;SDS011;40925;45.666;18.994;2023-03-16T01:01:21;10.00;;;4.57;;
55025;SDS011;40925;45.666;18.994;2023-03-16T01:03:48;13.27;;;4.78;;
55025;SDS011;40925;45.666;18.994;2023-03-16T01:06:22;8.90;;;4.43;;
55025;SDS011;40925;45.666;18.994;2023-03-16T01:08:48;9.52;;;4.13;;
55025;SDS011;40925;45.666;18.994;2023-03-16T01:11:17;8.23;;;4.13;;
55025;SDS011;40925;45.666;18.994;2023-03-16T01:13:43;10.82;;;4.50;;
55025;SDS011;40925;45.666;18.994;2023-03-16T01:16:11;9.40;;;4.40;;
55025;SDS011;40925;45.666;18.994;2023-03-16T01:18:39;10.38;;;4.55;;
55025;SDS011;40925;45.666;18.994;2023-03-16T01:21:06;10.00;;;4.47;;
55025;SDS011;40925;45.666;18.994;2023-03-16T01:23:33;9.18;;;4.03;;
55025;SDS011;40925;45.666;18.994;2023-03-16T01:25:59;10.07;;;4.80;;
55025;SDS011;40925;45.666;18.994;2023-03-16T01:28:27;11.68;;;4.38;;
55025;SDS011;40925;45.666;18.994;2023-03-16T01:30:54;9.93;;;4.53;;
55025;SDS011;40925;45.666;18.994;2023-03-16T01:33:22;8.90;;;3.83;;
55025;SDS011;40925;45.666;18.994;2023-03-16T01:35:52;8.10;;;4.07;;
55025;SDS011;40925;45.666;18.994;2023-03-16T01:38:18;11.05;;;4.30;;
55025;SDS011;40925;45.666;18.994;2023-03-16T01:40:44;7.22;;;3.90;;
55025;SDS011;40925;45.666;18.994;2023-03-16T01:43:15;12.82;;;4.50;;
55025;SDS011;40925;45.666;18.994;2023-03-16T01:48:31;7.72;;;4.22;;
55025;SDS011;40925;45.666;18.994;2023-03-16T01:51:03;8.85;;;4.47;;
55025;SDS011;40925;45.666;18.994;2023-03-16T01:53:35;9.73;;;5.05;;
55025;SDS011;40925;45.666;18.994;2023-03-16T01:56:04;10.10;;;4.60;;
55025;SDS011;40925;45.666;18.994;2023-03-16T01:58:34;12.30;;;4.78;;
55025;SDS011;40925;45.666;18.994;2023-03-16T02:01:01;8.13;;;4.03;;
55025;SDS011;40925;45.666;18.994;2023-03-16T02:03:28;9.85;;;4.20;;
55025;SDS011;40925;45.666;18.994;2023-03-16T02:06:03;10.07;;;4.50;;
55025;SDS011;40925;45.666;18.994;2023-03-16T02:08:36;12.70;;;4.43;;
55025;SDS011;40925;45.666;18.994;2023-03-16T02:11:04;10.13;;;4.35;;
55025;SDS011;40925;45.666;18.994;2023-03-16T02:13:32;12.80;;;5.47;;
55025;SDS011;40925;45.666;18.994;2023-03-16T02:16:00;10.23;;;4.22;;
55025;SDS011;40925;45.666;18.994;2023-03-16T02:18:27;10.25;;;4.63;;
55025;SDS011;40925;45.666;18.994;2023-03-16T02:20:58;10.95;;;4.40;;
55025;SDS011;40925;45.666;18.994;2023-03-16T02:30:28;8.80;;;4.00;;
55025;SDS011;40925;45.666;18.994;2023-03-16T02:32:54;8.82;;;3.88;;
55025;SDS011;40925;45.666;18.994;2023-03-16T02:35:22;9.68;;;4.38;;
55025;SDS011;40925;45.666;18.994;2023-03-16T02:38:06;8.57;;;3.95;;
55025;SDS011;40925;45.666;18.994;2023-03-16T02:40:34;9.38;;;4.05;;
55025;SDS011;40925;45.666;18.994;2023-03-16T02:43:15;9.65;;;3.80;;
55025;SDS011;40925;45.666;18.994;2023-03-16T02:45:49;9.13;;;4.00;;
55025;SDS011;40925;45.666;18.994;2023-03-16T02:48:22;9.43;;;4.00;;
55025;SDS011;40925;45.666;18.994;2023-03-16T02:50:59;8.02;;;3.90;;
55025;SDS011;40925;45.666;18.994;2023-03-16T02:53:25;9.68;;;4.18;;
55025;SDS011;40925;45.666;18.994;2023-03-16T02:55:51;12.27;;;4.20;;
55025;SDS011;40925;45.666;18.994;2023-03-16T02:58:17;7.45;;;3.92;;
55025;SDS011;40925;45.666;18.994;2023-03-16T03:00:43;10.90;;;3.78;;
55025;SDS011;40925;45.666;18.994;2023-03-16T03:03:10;10.77;;;4.32;;
55025;SDS011;40925;45.666;18.994;2023-03-16T03:05:37;13.68;;;4.00;;
55025;SDS011;40925;45.666;18.994;2023-03-16T03:11:08;11.60;;;4.20;;
55025;SDS011;40925;45.666;18.994;2023-03-16T03:13:34;9.68;;;4.35;;
55025;SDS011;40925;45.666;18.994;2023-03-16T03:16:03;10.65;;;4.10;;
55025;SDS011;40925;45.666;18.994;2023-03-16T03:18:29;9.60;;;4.10;;
55025;SDS011;40925;45.666;18.994;2023-03-16T03:20:57;6.65;;;3.90;;
55025;SDS011;40925;45.666;18.994;2023-03-16T03:23:22;8.65;;;4.15;;
55025;SDS011;40925;45.666;18.994;2023-03-16T03:25:48;10.50;;;4.20;;
55025;SDS011;40925;45.666;18.994;2023-03-16T03:28:15;10.07;;;4.47;;
55025;SDS011;40925;45.666;18.994;2023-03-16T03:30:42;9.75;;;4.00;;
55025;SDS011;40925;45.666;18.994;2023-03-16T03:33:08;9.48;;;4.07;;
55025;SDS011;40925;45.666;18.994;2023-03-16T03:35:59;12.82;;;3.70;;
55025;SDS011;40925;45.666;18.994;2023-03-16T03:38:26;10.35;;;3.92;;
55025;SDS011;40925;45.666;18.994;2023-03-16T03:40:53;9.82;;;4.28;;
55025;SDS011;40925;45.666;18.994;2023-03-16T03:43:23;10.93;;;4.72;;
55025;SDS011;40925;45.666;18.994;2023-03-16T03:45:54;11.82;;;4.63;;
55025;SDS011;40925;45.666;18.994;2023-03-16T03:48:21;10.48;;;4.60;;
55025;SDS011;40925;45.666;18.994;2023-03-16T03:50:50;10.43;;;4.22;;
55025;SDS011;40925;45.666;18.994;2023-03-16T03:53:16;9.90;;;4.20;;
55025;SDS011;40925;45.666;18.994;2023-03-16T03:55:43;12.38;;;4.20;;
55025;SDS011;40925;45.666;18.994;2023-03-16T03:58:13;10.20;;;3.97;;
55025;SDS011;40925;45.666;18.994;2023-03-16T04:00:40;14.23;;;4.80;;
55025;SDS011;40925;45.666;18.994;2023-03-16T04:03:06;10.80;;;4.40;;
55025;SDS011;40925;45.666;18.994;2023-03-16T04:05:33;12.00;;;5.07;;
55025;SDS011;40925;45.666;18.994;2023-03-16T04:08:17;10.13;;;4.22;;
55025;SDS011;40925;45.666;18.994;2023-03-16T04:10:46;9.43;;;4.53;;
55025;SDS011;40925;45.666;18.994;2023-03-16T04:13:13;12.32;;;5.03;;
55025;SDS011;40925;45.666;18.994;2023-03-16T04:15:39;12.27;;;4.90;;
55025;SDS011;40925;45.666;18.994;2023-03-16T04:18:05;10.52;;;4.53;;
55025;SDS011;40925;45.666;18.994;2023-03-16T04:20:31;10.93;;;4.65;;
55025;SDS011;40925;45.666;18.994;2023-03-16T04:26:11;13.93;;;5.10;;
55025;SDS011;40925;45.666;18.994;2023-03-16T04:28:37;10.90;;;4.70;;
55025;SDS011;40925;45.666;18.994;2023-03-16T04:31:05;11.05;;;4.65;;
55025;SDS011;40925;45.666;18.994;2023-03-16T04:33:31;9.80;;;4.07;;
55025;SDS011;40925;45.666;18.994;2023-03-16T04:35:58;11.38;;;4.72;;
55025;SDS011;40925;45.666;18.994;2023-03-16T04:41:28;8.38;;;4.07;;
55025;SDS011;40925;45.666;18.994;2023-03-16T04:43:55;10.82;;;3.97;;
55025;SDS011;40925;45.666;18.994;2023-03-16T04:46:22;7.80;;;3.70;;
55025;SDS011;40925;45.666;18.994;2023-03-16T04:48:49;8.88;;;4.50;;
55025;SDS011;40925;45.666;18.994;2023-03-16T04:51:16;9.85;;;3.90;;
55025;SDS011;40925;45.666;18.994;2023-03-16T04:54:00;11.15;;;4.10;;
55025;SDS011;40925;45.666;18.994;2023-03-16T04:56:29;8.48;;;3.97;;
55025;SDS011;40925;45.666;18.994;2023-03-16T04:58:56;8.63;;;4.07;;
55025;SDS011;40925;45.666;18.994;2023-03-16T05:01:22;10.77;;;4.20;;
55025;SDS011;40925;45.666;18.994;2023-03-16T05:03:48;39.50;;;15.18;;
55025;SDS011;40925;45.666;18.994;2023-03-16T05:06:15;22.58;;;8.48;;
55025;SDS011;40925;45.666;18.994;2023-03-16T05:11:57;18.75;;;8.02;;
55025;SDS011;40925;45.666;18.994;2023-03-16T05:14:24;38.30;;;12.68;;
55025;SDS011;40925;45.666;18.994;2023-03-16T05:16:50;23.30;;;14.63;;
55025;SDS011;40925;45.666;18.994;2023-03-16T05:19:16;21.98;;;12.02;;
55025;SDS011;40925;45.666;18.994;2023-03-16T05:21:44;24.50;;;9.48;;
55025;SDS011;40925;45.666;18.994;2023-03-16T05:24:25;34.47;;;11.95;;
55025;SDS011;40925;45.666;18.994;2023-03-16T05:26:51;25.17;;;9.55;;
55025;SDS011;40925;45.666;18.994;2023-03-16T05:29:17;27.27;;;9.68;;
55025;SDS011;40925;45.666;18.994;2023-03-16T05:31:43;13.77;;;5.63;;
55025;SDS011;40925;45.666;18.994;2023-03-16T05:34:11;17.00;;;7.25;;
55025;SDS011;40925;45.666;18.994;2023-03-16T05:36:38;19.42;;;7.15;;
55025;SDS011;40925;45.666;18.994;2023-03-16T05:42:23;16.38;;;8.15;;
55025;SDS011;40925;45.666;18.994;2023-03-16T05:44:51;23.08;;;9.63;;
55025;SDS011;40925;45.666;18.994;2023-03-16T05:47:18;30.15;;;14.55;;
55025;SDS011;40925;45.666;18.994;2023-03-16T05:49:44;15.45;;;8.57;;
55025;SDS011;40925;45.666;18.994;2023-03-16T05:52:11;15.32;;;7.30;;
55025;SDS011;40925;45.666;18.994;2023-03-16T05:54:37;23.73;;;10.00;;
55025;SDS011;40925;45.666;18.994;2023-03-16T05:57:04;23.73;;;10.07;;
55025;SDS011;40925;45.666;18.994;2023-03-16T05:59:31;27.15;;;13.30;;
55025;SDS011;40925;45.666;18.994;2023-03-16T06:01:57;33.65;;;14.35;;
55025;SDS011;40925;45.666;18.994;2023-03-16T06:04:23;25.52;;;11.88;;
55025;SDS011;40925;45.666;18.994;2023-03-16T06:06:50;18.30;;;10.60;;
55025;SDS011;40925;45.666;18.994;2023-03-16T06:12:32;16.23;;;8.23;;
55025;SDS011;40925;45.666;18.994;2023-03-16T06:15:00;13.65;;;7.43;;
55025;SDS011;40925;45.666;18.994;2023-03-16T06:17:30;17.55;;;9.15;;
55025;SDS011;40925;45.666;18.994;2023-03-16T06:19:59;17.88;;;8.52;;
55025;SDS011;40925;45.666;18.994;2023-03-16T06:22:26;16.75;;;8.38;;
55025;SDS011;40925;45.666;18.994;2023-03-16T06:25:29;15.55;;;7.10;;
55025;SDS011;40925;45.666;18.994;2023-03-16T06:27:56;12.75;;;7.55;;
55025;SDS011;40925;45.666;18.994;2023-03-16T06:30:22;15.00;;;7.50;;
55025;SDS011;40925;45.666;18.994;2023-03-16T06:32:48;13.90;;;7.32;;
55025;SDS011;40925;45.666;18.994;2023-03-16T06:35:14;15.27;;;7.50;;
55025;SDS011;40925;45.666;18.994;2023-03-16T06:41:29;18.35;;;9.18;;
55025;SDS011;40925;45.666;18.994;2023-03-16T06:44:02;16.33;;;8.75;;
55025;SDS011;40925;45.666;18.994;2023-03-16T06:46:36;15.30;;;8.75;;
55025;SDS011;40925;45.666;18.994;2023-03-16T06:49:09;22.10;;;10.43;;
55025;SDS011;40925;45.666;18.994;2023-03-16T06:51:50;20.48;;;9.75;;
55025;SDS011;40925;45.666;18.994;2023-03-16T06:57:44;15.43;;;9.07;;
55025;SDS011;40925;45.666;18.994;2023-03-16T07:00:17;15.68;;;8.63;;
55025;SDS011;40925;45.666;18.994;2023-03-16T07:02:47;15.15;;;8.20;;
55025;SDS011;40925;45.666;18.994;2023-03-16T07:05:13;14.65;;;7.18;;
55025;SDS011;40925;45.666;18.994;2023-03-16T07:07:45;15.15;;;7.60;;
55025;SDS011;40925;45.666;18.994;2023-03-16T07:15:34;20.67;;;9.63;;
55025;SDS011;40925;45.666;18.994;2023-03-16T07:17:59;16.13;;;8.13;;
55025;SDS011;40925;45.666;18.994;2023-03-16T07:20:26;13.95;;;8.00;;
55025;SDS011;40925;45.666;18.994;2023-03-16T07:22:55;14.25;;;8.18;;
55025;SDS011;40925;45.666;18.994;2023-03-16T07:28:43;14.63;;;7.72;;
55025;SDS011;40925;45.666;18.994;2023-03-16T07:31:09;26.75;;;12.00;;
55025;SDS011;40925;45.666;18.994;2023-03-16T07:33:36;15.02;;;7.55;;
55025;SDS011;40925;45.666;18.994;2023-03-16T07:36:07;15.80;;;8.57;;
55025;SDS011;40925;45.666;18.994;2023-03-16T07:42:07;15.95;;;7.65;;
55025;SDS011;40925;45.666;18.994;2023-03-16T07:44:34;19.05;;;7.88;;
55025;SDS011;40925;45.666;18.994;2023-03-16T07:47:01;23.35;;;10.35;;
55025;SDS011;40925;45.666;18.994;2023-03-16T07:49:26;14.57;;;7.97;;
55025;SDS011;40925;45.666;18.994;2023-03-16T07:51:52;17.05;;;8.40;;
55025;SDS011;40925;45.666;18.994;2023-03-16T07:54:19;11.93;;;6.80;;
55025;SDS011;40925;45.666;18.994;2023-03-16T07:56:45;13.90;;;7.60;;
55025;SDS011;40925;45.666;18.994;2023-03-16T07:59:12;15.65;;;8.32;;
55025;SDS011;40925;45.666;18.994;2023-03-16T08:01:39;13.55;;;7.28;;
55025;SDS011;40925;45.666;18.994;2023-03-16T08:04:05;15.10;;;6.43;;
55025;SDS011;40925;45.666;18.994;2023-03-16T08:06:31;17.00;;;8.68;;
55025;SDS011;40925;45.666;18.994;2023-03-16T08:08:57;14.52;;;8.40;;
55025;SDS011;40925;45.666;18.994;2023-03-16T08:11:25;21.55;;;12.32;;
55025;SDS011;40925;45.666;18.994;2023-03-16T08:13:51;15.23;;;8.70;;
55025;SDS011;40925;45.666;18.994;2023-03-16T08:16:23;17.05;;;9.25;;
55025;SDS011;40925;45.666;18.994;2023-03-16T08:18:50;31.85;;;17.33;;
55025;SDS011;40925;45.666;18.994;2023-03-16T08:21:17;38.28;;;19.83;;
55025;SDS011;40925;45.666;18.994;2023-03-16T08:26:31;65.85;;;29.10;;
55025;SDS011;40925;45.666;18.994;2023-03-16T08:28:57;21.00;;;10.88;;
55025;SDS011;40925;45.666;18.994;2023-03-16T08:31:27;18.77;;;10.63;;
55025;SDS011;40925;45.666;18.994;2023-03-16T08:33:53;13.20;;;7.43;;
55025;SDS011;40925;45.666;18.994;2023-03-16T08:36:26;15.25;;;7.00;;
55025;SDS011;40925;45.666;18.994;2023-03-16T08:42:10;11.25;;;6.38;;
55025;SDS011;40925;45.666;18.994;2023-03-16T08:44:39;8.35;;;5.40;;
55025;SDS011;40925;45.666;18.994;2023-03-16T08:52:46;10.75;;;5.45;;
55025;SDS011;40925;45.666;18.994;2023-03-16T08:55:25;16.83;;;7.80;;
55025;SDS011;40925;45.666;18.994;2023-03-16T09:00:33;15.23;;;6.43;;
55025;SDS011;40925;45.666;18.994;2023-03-16T09:03:40;10.23;;;5.75;;
55025;SDS011;40925;45.666;18.994;2023-03-16T09:06:29;11.48;;;6.07;;
55025;SDS011;40925;45.666;18.994;2023-03-16T09:36:13;9.73;;;4.65;;
55025;SDS011;40925;45.666;18.994;2023-03-16T09:38:49;8.98;;;4.50;;
55025;SDS011;40925;45.666;18.994;2023-03-16T09:56:21;10.52;;;5.82;;
55025;SDS011;40925;45.666;18.994;2023-03-16T10:17:03;9.05;;;5.13;;
55025;SDS011;40925;45.666;18.994;2023-03-16T10:30:53;8.50;;;5.00;;
55025;SDS011;40925;45.666;18.994;2023-03-16T10:33:35;7.13;;;4.57;;
55025;SDS011;40925;45.666;18.994;2023-03-16T10:36:28;27.20;;;12.30;;
55025;SDS011;40925;45.666;18.994;2023-03-16T10:39:47;13.15;;;7.05;;
55025;SDS011;40925;45.666;18.994;2023-03-16T10:56:51;16.45;;;7.53;;
55025;SDS011;40925;45.666;18.994;2023-03-16T11:06:05;12.73;;;6.97;;
55025;SDS011;40925;45.666;18.994;2023-03-16T11:46:52;8.60;;;4.30;;
55025;SDS011;40925;45.666;18.994;2023-03-16T12:07:31;11.75;;;5.15;;
55025;SDS011;40925;45.666;18.994;2023-03-16T12:20:04;13.48;;;9.10;;
55025;SDS011;40925;45.666;18.994;2023-03-16T12:25:22;8.55;;;5.00;;
55025;SDS011;40925;45.666;18.994;2023-03-16T12:31:34;11.73;;;5.88;;
55025;SDS011;40925;45.666;18.994;2023-03-16T12:35:24;15.18;;;6.93;;
55025;SDS011;40925;45.666;18.994;2023-03-16T12:43:30;13.73;;;6.55;;
55025;SDS011;40925;45.666;18.994;2023-03-16T12:48:32;11.88;;;7.15;;
55025;SDS011;40925;45.666;18.994;2023-03-16T12:53:42;6.88;;;5.15;;
55025;SDS011;40925;45.666;18.994;2023-03-16T12:59:44;10.68;;;6.47;;
55025;SDS011;40925;45.666;18.994;2023-03-16T13:02:18;14.68;;;7.93;;
55025;SDS011;40925;45.666;18.994;2023-03-16T13:05:43;10.80;;;6.70;;
55025;SDS011;40925;45.666;18.994;2023-03-16T13:08:27;13.27;;;7.32;;
55025;SDS011;40925;45.666;18.994;2023-03-16T13:11:43;14.27;;;8.05;;
55025;SDS011;40925;45.666;18.994;2023-03-16T13:34:32;11.27;;;6.45;;
55025;SDS011;40925;45.666;18.994;2023-03-16T13:40:56;19.05;;;9.90;;
55025;SDS011;40925;45.666;18.994;2023-03-16T13:44:03;11.13;;;6.90;;
55025;SDS011;40925;45.666;18.994;2023-03-16T13:46:30;17.50;;;10.02;;
55025;SDS011;40925;45.666;18.994;2023-03-16T13:49:15;17.15;;;9.98;;
55025;SDS011;40925;45.666;18.994;2023-03-16T13:51:47;31.23;;;14.48;;
55025;SDS011;40925;45.666;18.994;2023-03-16T13:56:52;18.00;;;8.82;;
55025;SDS011;40925;45.666;18.994;2023-03-16T13:59:34;13.98;;;6.85;;
55025;SDS011;40925;45.666;18.994;2023-03-16T14:02:10;10.20;;;5.25;;
55025;SDS011;40925;45.666;18.994;2023-03-16T14:07:41;10.10;;;6.10;;
55025;SDS011;40925;45.666;18.994;2023-03-16T14:16:24;7.15;;;3.85;;
55025;SDS011;40925;45.666;18.994;2023-03-16T14:18:51;12.82;;;6.13;;
55025;SDS011;40925;45.666;18.994;2023-03-16T14:21:20;12.63;;;6.93;;
55025;SDS011;40925;45.666;18.994;2023-03-16T14:23:49;27.45;;;12.75;;
55025;SDS011;40925;45.666;18.994;2023-03-16T14:26:19;32.60;;;12.60;;
55025;SDS011;40925;45.666;18.994;2023-03-16T14:28:55;21.17;;;9.98;;
55025;SDS011;40925;45.666;18.994;2023-03-16T14:31:42;25.67;;;12.02;;
55025;SDS011;40925;45.666;18.994;2023-03-16T14:34:42;14.90;;;7.20;;
55025;SDS011;40925;45.666;18.994;2023-03-16T14:45:36;8.25;;;5.45;;
55025;SDS011;40925;45.666;18.994;2023-03-16T14:50:52;8.98;;;4.93;;
55025;SDS011;40925;45.666;18.994;2023-03-16T14:53:19;17.33;;;8.70;;
55025;SDS011;40925;45.666;18.994;2023-03-16T14:55:45;13.45;;;7.55;;
55025;SDS011;40925;45.666;18.994;2023-03-16T14:58:14;13.05;;;6.65;;
55025;SDS011;40925;45.666;18.994;2023-03-16T15:00:54;13.68;;;7.00;;
55025;SDS011;40925;45.666;18.994;2023-03-16T15:03:28;11.77;;;5.40;;
55025;SDS011;40925;45.666;18.994;2023-03-16T15:05:56;16.60;;;7.47;;
55025;SDS011;40925;45.666;18.994;2023-03-16T15:08:25;18.63;;;8.77;;
55025;SDS011;40925;45.666;18.994;2023-03-16T15:13:57;18.30;;;8.65;;
55025;SDS011;40925;45.666;18.994;2023-03-16T15:16:39;13.75;;;7.15;;
55025;SDS011;40925;45.666;18.994;2023-03-16T15:19:07;9.50;;;5.22;;
55025;SDS011;40925;45.666;18.994;2023-03-16T15:21:35;25.08;;;9.88;;
55025;SDS011;40925;45.666;18.994;2023-03-16T15:24:03;18.98;;;9.00;;
55025;SDS011;40925;45.666;18.994;2023-03-16T15:29:51;19.53;;;9.63;;
55025;SDS011;40925;45.666;18.994;2023-03-16T15:32:17;15.25;;;7.90;;
55025;SDS011;40925;45.666;18.994;2023-03-16T15:34:44;12.30;;;5.75;;
55025;SDS011;40925;45.666;18.994;2023-03-16T15:37:14;12.73;;;6.97;;
55025;SDS011;40925;45.666;18.994;2023-03-16T15:39:43;11.60;;;6.30;;
55025;SDS011;40925;45.666;18.994;2023-03-16T15:44:39;21.50;;;11.02;;
55025;SDS011;40925;45.666;18.994;2023-03-16T15:47:06;19.70;;;10.13;;
55025;SDS011;40925;45.666;18.994;2023-03-16T15:49:33;25.35;;;13.18;;
55025;SDS011;40925;45.666;18.994;2023-03-16T15:51:59;27.92;;;12.32;;
55025;SDS011;40925;45.666;18.994;2023-03-16T15:54:25;27.50;;;13.95;;
55025;SDS011;40925;45.666;18.994;2023-03-16T15:56:52;23.40;;;12.15;;
55025;SDS011;40925;45.666;18.994;2023-03-16T15:59:21;22.33;;;10.82;;
55025;SDS011;40925;45.666;18.994;2023-03-16T16:01:52;12.90;;;7.10;;
55025;SDS011;40925;45.666;18.994;2023-03-16T16:04:20;13.75;;;7.18;;
55025;SDS011;40925;45.666;18.994;2023-03-16T16:06:49;14.50;;;8.48;;
55025;SDS011;40925;45.666;18.994;2023-03-16T16:09:18;18.05;;;10.15;;
55025;SDS011;40925;45.666;18.994;2023-03-16T16:11:45;25.75;;;14.20;;
55025;SDS011;40925;45.666;18.994;2023-03-16T16:14:18;18.92;;;11.07;;
55025;SDS011;40925;45.666;18.994;2023-03-16T16:16:49;14.88;;;8.88;;
55025;SDS011;40925;45.666;18.994;2023-03-16T16:19:36;24.02;;;11.93;;
55025;SDS011;40925;45.666;18.994;2023-03-16T16:22:03;18.58;;;9.23;;
55025;SDS011;40925;45.666;18.994;2023-03-16T16:24:31;21.85;;;11.00;;
55025;SDS011;40925;45.666;18.994;2023-03-16T16:26:59;22.73;;;12.30;;
55025;SDS011;40925;45.666;18.994;2023-03-16T16:29:28;17.52;;;10.57;;
55025;SDS011;40925;45.666;18.994;2023-03-16T16:32:00;25.67;;;13.90;;
55025;SDS011;40925;45.666;18.994;2023-03-16T16:34:31;33.85;;;17.08;;
55025;SDS011;40925;45.666;18.994;2023-03-16T16:37:02;44.00;;;20.10;;
55025;SDS011;40925;45.666;18.994;2023-03-16T16:39:31;39.75;;;20.77;;
55025;SDS011;40925;45.666;18.994;2023-03-16T16:44:37;34.60;;;18.08;;
55025;SDS011;40925;45.666;18.994;2023-03-16T16:47:04;40.78;;;19.70;;
55025;SDS011;40925;45.666;18.994;2023-03-16T16:49:46;33.78;;;17.30;;
55025;SDS011;40925;45.666;18.994;2023-03-16T16:52:17;30.85;;;14.90;;
55025;SDS011;40925;45.666;18.994;2023-03-16T16:54:47;33.40;;;17.73;;
55025;SDS011;40925;45.666;18.994;2023-03-16T17:00:22;43.30;;;22.63;;
55025;SDS011;40925;45.666;18.994;2023-03-16T17:03:29;38.13;;;19.02;;
55025;SDS011;40925;45.666;18.994;2023-03-16T18:26:17;289.60;;;113.20;;
55025;SDS011;40925;45.666;18.994;2023-03-16T18:28:47;266.33;;;105.55;;
55025;SDS011;40925;45.666;18.994;2023-03-16T18:31:25;197.73;;;85.13;;
55025;SDS011;40925;45.666;18.994;2023-03-16T18:33:58;133.25;;;61.00;;
55025;SDS011;40925;45.666;18.994;2023-03-16T18:36:41;94.63;;;45.70;;
55025;SDS011;40925;45.666;18.994;2023-03-16T18:39:16;79.75;;;38.30;;
55025;SDS011;40925;45.666;18.994;2023-03-16T19:37:16;35.45;;;19.00;;
55025;SDS011;40925;45.666;18.994;2023-03-16T19:40:24;36.25;;;18.88;;
55025;SDS011;40925;45.666;18.994;2023-03-16T19:46:26;54.55;;;29.30;;
55025;SDS011;40925;45.666;18.994;2023-03-16T19:49:19;58.40;;;33.35;;
55025;SDS011;40925;45.666;18.994;2023-03-16T19:52:08;62.78;;;32.72;;
55025;SDS011;40925;45.666;18.994;2023-03-16T19:54:43;84.40;;;46.73;;
55025;SDS011;40925;45.666;18.994;2023-03-16T19:57:56;85.38;;;43.45;;
55025;SDS011;40925;45.666;18.994;2023-03-16T20:03:58;87.38;;;46.63;;
55025;SDS011;40925;45.666;18.994;2023-03-16T20:06:37;80.45;;;40.65;;
55025;SDS011;40925;45.666;18.994;2023-03-16T20:15:34;162.00;;;78.55;;
55025;SDS011;40925;45.666;18.994;2023-03-16T20:18:09;149.32;;;68.78;;
55025;SDS011;40925;45.666;18.994;2023-03-16T20:20:37;113.15;;;51.47;;
55025;SDS011;40925;45.666;18.994;2023-03-16T20:23:21;116.10;;;51.17;;
55025;SDS011;40925;45.666;18.994;2023-03-16T20:25:52;121.75;;;53.30;;
55025;SDS011;40925;45.666;18.994;2023-03-16T20:31:25;79.13;;;38.30;;
55025;SDS011;40925;45.666;18.994;2023-03-16T20:33:53;60.47;;;33.40;;
55025;SDS011;40925;45.666;18.994;2023-03-16T20:36:20;62.22;;;34.17;;
55025;SDS011;40925;45.666;18.994;2023-03-16T20:38:47;72.75;;;40.63;;
55025;SDS011;40925;45.666;18.994;2023-03-16T20:43:52;67.88;;;37.05;;
55025;SDS011;40925;45.666;18.994;2023-03-16T20:46:26;62.88;;;33.97;;
55025;SDS011;40925;45.666;18.994;2023-03-16T20:48:53;50.85;;;29.50;;
55025;SDS011;40925;45.666;18.994;2023-03-16T20:51:19;40.58;;;22.30;;
55025;SDS011;40925;45.666;18.994;2023-03-16T20:53:52;31.80;;;18.77;;
55025;SDS011;40925;45.666;18.994;2023-03-16T20:56:21;30.60;;;18.25;;
55025;SDS011;40925;45.666;18.994;2023-03-16T20:59:09;51.22;;;27.83;;
55025;SDS011;40925;45.666;18.994;2023-03-16T21:01:36;108.53;;;53.05;;
55025;SDS011;40925;45.666;18.994;2023-03-16T21:04:11;90.85;;;46.33;;
55025;SDS011;40925;45.666;18.994;2023-03-16T21:06:42;89.90;;;46.03;;
55025;SDS011;40925;45.666;18.994;2023-03-16T21:09:15;94.78;;;47.33;;
55025;SDS011;40925;45.666;18.994;2023-03-16T21:11:49;97.63;;;47.08;;
55025;SDS011;40925;45.666;18.994;2023-03-16T21:14:30;128.45;;;60.00;;
55025;SDS011;40925;45.666;18.994;2023-03-16T21:17:35;200.05;;;91.75;;
55025;SDS011;40925;45.666;18.994;2023-03-16T21:20:12;173.18;;;83.03;;
55025;SDS011;40925;45.666;18.994;2023-03-16T21:22:42;154.07;;;70.55;;
55025;SDS011;40925;45.666;18.994;2023-03-16T21:46:24;128.73;;;55.95;;
55025;SDS011;40925;45.666;18.994;2023-03-16T22:01:21;125.15;;;55.75;;
55025;SDS011;40925;45.666;18.994;2023-03-16T22:04:17;123.28;;;53.67;;
55025;SDS011;40925;45.666;18.994;2023-03-16T22:06:51;104.13;;;48.90;;
55025;SDS011;40925;45.666;18.994;2023-03-16T22:09:44;114.18;;;54.40;;
55025;SDS011;40925;45.666;18.994;2023-03-16T22:12:12;104.40;;;51.92;;
55025;SDS011;40925;45.666;18.994;2023-03-16T22:17:50;106.43;;;49.83;;
55025;SDS011;40925;45.666;18.994;2023-03-16T22:20:18;112.18;;;51.08;;
55025;SDS011;40925;45.666;18.994;2023-03-16T22:22:50;111.40;;;51.92;;
55025;SDS011;40925;45.666;18.994;2023-03-16T22:25:33;119.72;;;55.35;;
55025;SDS011;40925;45.666;18.994;2023-03-16T22:28:14;113.05;;;53.35;;
55025;SDS011;40925;45.666;18.994;2023-03-16T22:30:44;129.15;;;57.70;;
55025;SDS011;40925;45.666;18.994;2023-03-16T22:33:16;109.18;;;52.78;;
55025;SDS011;40925;45.666;18.994;2023-03-16T22:35:46;109.30;;;50.47;;
55025;SDS011;40925;45.666;18.994;2023-03-16T22:38:12;108.45;;;52.15;;
55025;SDS011;40925;45.666;18.994;2023-03-16T22:40:46;98.97;;;49.60;;
55025;SDS011;40925;45.666;18.994;2023-03-16T22:49:30;77.45;;;35.38;;
55025;SDS011;40925;45.666;18.994;2023-03-16T22:52:00;75.43;;;35.15;;
55025;SDS011;40925;45.666;18.994;2023-03-16T22:54:27;76.40;;;35.50;;
55025;SDS011;40925;45.666;18.994;2023-03-16T22:56:58;74.43;;;35.55;;
55025;SDS011;40925;45.666;18.994;2023-03-16T22:59:25;67.13;;;34.63;;
55025;SDS011;40925;45.666;18.994;2023-03-16T23:01:56;64.35;;;33.90;;
55025;SDS011;40925;45.666;18.994;2023-03-16T23:04:26;70.13;;;35.95;;
55025;SDS011;40925;45.666;18.994;2023-03-16T23:09:33;70.68;;;35.33;;
55025;SDS011;40925;45.666;18.994;2023-03-16T23:12:14;74.43;;;36.88;;
55025;SDS011;40925;45.666;18.994;2023-03-16T23:17:52;93.40;;;43.05;;
55025;SDS011;40925;45.666;18.994;2023-03-16T23:20:23;114.35;;;50.08;;